createdAt,value
2019-05-07T00:01:45.818Z,14.50
2019-05-07T00:04:15.871Z,12.27
2019-05-07T00:06:44.695Z,12.43
2019-05-07T00:09:13.574Z,10.83
2019-05-07T00:11:42.671Z,10.20
2019-05-07T00:14:12.598Z,18.27
2019-05-07T00:16:42.236Z,16.13
2019-05-07T00:19:09.552Z,18.37
2019-05-07T00:21:42.308Z,16.73
2019-05-07T00:24:09.891Z,19.00
2019-05-07T00:26:39.130Z,9.70
2019-05-07T00:29:07.948Z,10.37
2019-05-07T00:31:37.917Z,14.03
2019-05-07T00:34:07.368Z,11.00
2019-05-07T00:36:42.035Z,19.77
2019-05-07T00:39:13.087Z,12.70
2019-05-07T00:41:46.819Z,14.47
2019-05-07T00:44:15.766Z,14.40
2019-05-07T00:46:44.637Z,16.63
2019-05-07T00:49:13.433Z,14.20
2019-05-07T00:51:43.786Z,13.30
2019-05-07T00:54:12.604Z,16.67
2019-05-07T00:56:42.851Z,14.07
2019-05-07T00:59:10.285Z,11.53
2019-05-07T01:01:39.098Z,17.07
2019-05-07T01:04:07.888Z,11.93
2019-05-07T01:06:36.664Z,16.13
2019-05-07T01:09:05.985Z,18.53
2019-05-07T01:11:34.771Z,16.83
2019-05-07T01:14:03.583Z,14.67
2019-05-07T01:16:32.982Z,15.07
2019-05-07T01:19:01.907Z,14.13
2019-05-07T01:21:32.252Z,11.43
2019-05-07T01:23:58.922Z,14.90
2019-05-07T01:26:27.722Z,16.83
2019-05-07T01:28:59.627Z,13.27
2019-05-07T01:31:29.811Z,15.13
2019-05-07T01:34:02.807Z,14.70
2019-05-07T01:36:32.019Z,14.77
2019-05-07T01:39:02.538Z,13.70
2019-05-07T01:41:29.203Z,15.67
2019-05-07T01:43:58.045Z,15.80
2019-05-07T01:46:26.831Z,12.70
2019-05-07T01:48:57.470Z,20.87
2019-05-07T01:51:25.015Z,20.80
2019-05-07T01:53:53.784Z,22.47
2019-05-07T01:56:23.039Z,17.40
2019-05-07T01:58:52.799Z,16.47
2019-05-07T02:01:22.133Z,17.20
2019-05-07T02:03:59.828Z,18.73
2019-05-07T02:06:32.917Z,25.37
2019-05-07T02:09:06.643Z,19.20
2019-05-07T02:11:39.762Z,18.77
2019-05-07T02:14:08.655Z,15.80
2019-05-07T02:16:37.694Z,19.43
2019-05-07T02:19:06.539Z,23.57
2019-05-07T02:21:35.340Z,22.03
2019-05-07T02:24:04.144Z,25.80
2019-05-07T02:26:32.970Z,30.10
2019-05-07T02:29:02.745Z,18.00
2019-05-07T02:31:33.581Z,16.30
2019-05-07T02:34:02.550Z,19.60
2019-05-07T02:36:28.582Z,22.33
2019-05-07T02:39:12.885Z,16.00
2019-05-07T02:41:43.768Z,18.80
2019-05-07T02:44:13.373Z,20.63
2019-05-07T02:46:44.340Z,16.53
2019-05-07T02:49:17.363Z,18.60
2019-05-07T02:51:52.966Z,20.23
2019-05-07T02:54:25.051Z,21.03
2019-05-07T02:56:53.855Z,20.17
2019-05-07T02:59:23.574Z,19.27
2019-05-07T03:01:53.755Z,21.83
2019-05-07T03:04:20.335Z,18.23
2019-05-07T03:06:49.179Z,17.57
2019-05-07T03:09:19.030Z,15.73
2019-05-07T03:11:47.831Z,16.43
2019-05-07T03:14:16.623Z,15.63
2019-05-07T03:16:49.223Z,14.90
2019-05-07T03:19:14.289Z,17.93
2019-05-07T03:21:58.385Z,17.90
2019-05-07T03:24:34.298Z,23.37
2019-05-07T03:27:03.189Z,23.60
2019-05-07T03:29:33.015Z,24.10
2019-05-07T03:32:06.537Z,19.67
2019-05-07T03:34:38.965Z,16.87
2019-05-07T03:37:08.245Z,18.83
2019-05-07T03:39:37.043Z,20.00
2019-05-07T03:42:05.932Z,17.73
2019-05-07T03:44:44.535Z,16.70
2019-05-07T03:47:19.295Z,18.97
2019-05-07T03:49:48.215Z,17.27
2019-05-07T03:52:16.999Z,22.50
2019-05-07T03:54:45.846Z,17.10
2019-05-07T03:57:15.858Z,22.97
2019-05-07T03:59:45.287Z,19.03
2019-05-07T04:02:15.737Z,21.77
2019-05-07T04:04:44.523Z,19.50
2019-05-07T04:07:14.033Z,12.00
2019-05-07T04:09:43.788Z,14.50
2019-05-07T04:12:13.163Z,20.13
2019-05-07T04:14:43.298Z,20.67
2019-05-07T04:17:21.414Z,26.67
2019-05-07T04:19:40.050Z,25.90
2019-05-07T04:22:08.900Z,25.43
2019-05-07T04:24:44.951Z,22.73
2019-05-07T04:27:18.808Z,29.07
2019-05-07T04:29:47.612Z,28.03
2019-05-07T04:32:16.423Z,22.20
2019-05-07T04:34:52.955Z,24.47
2019-05-07T04:37:18.699Z,24.00
2019-05-07T04:39:53.781Z,23.07
2019-05-07T04:42:24.297Z,24.63
2019-05-07T04:44:53.746Z,22.27
2019-05-07T04:47:36.907Z,23.87
2019-05-07T04:49:48.349Z,17.60
2019-05-07T04:52:23.846Z,27.90
2019-05-07T04:54:52.777Z,24.13
2019-05-07T04:57:25.661Z,28.10
2019-05-07T04:59:55.805Z,27.00
2019-05-07T05:02:32.355Z,26.70
2019-05-07T05:04:58.776Z,23.57
2019-05-07T05:07:27.668Z,26.37
2019-05-07T05:09:56.481Z,26.30
2019-05-07T05:12:25.783Z,29.50
2019-05-07T05:14:54.641Z,27.87
2019-05-07T05:17:23.394Z,30.23
2019-05-07T05:19:52.592Z,27.33
2019-05-07T05:22:27.204Z,30.67
2019-05-07T05:25:02.525Z,26.73
2019-05-07T05:27:32.504Z,27.33
2019-05-07T05:29:59.851Z,26.57
2019-05-07T05:32:28.648Z,28.10
2019-05-07T05:34:57.536Z,29.67
2019-05-07T05:37:27.274Z,42.63
2019-05-07T05:40:06.306Z,32.27
2019-05-07T05:42:30.159Z,28.40
2019-05-07T05:44:58.991Z,29.50
2019-05-07T05:47:28.474Z,33.00
2019-05-07T05:49:57.282Z,29.57
2019-05-07T05:52:33.971Z,27.73
2019-05-07T05:55:12.040Z,29.83
2019-05-07T05:58:02.734Z,33.03
2019-05-07T06:00:36.804Z,28.53
2019-05-07T06:03:11.957Z,29.83
2019-05-07T06:05:45.968Z,28.77
2019-05-07T06:08:19.855Z,30.03
2019-05-07T06:10:52.847Z,32.93
2019-05-07T06:13:26.751Z,32.60
2019-05-07T06:16:12.570Z,29.83
2019-05-07T06:18:45.953Z,31.53
2019-05-07T06:21:24.131Z,28.63
2019-05-07T06:23:54.531Z,26.97
2019-05-07T06:26:24.009Z,26.37
2019-05-07T06:28:53.458Z,23.93
2019-05-07T06:31:22.314Z,21.50
2019-05-07T06:33:52.354Z,22.40
2019-05-07T06:36:22.043Z,25.20
2019-05-07T06:38:53.748Z,27.37
2019-05-07T06:41:26.753Z,22.80
2019-05-07T06:43:58.991Z,30.30
2019-05-07T06:46:29.219Z,21.50
2019-05-07T06:48:58.353Z,23.03
2019-05-07T06:51:27.158Z,29.07
2019-05-07T06:53:56.010Z,23.63
2019-05-07T06:56:25.055Z,21.93
2019-05-07T06:59:12.979Z,22.90
2019-05-07T07:02:05.339Z,20.03
2019-05-07T07:04:53.371Z,23.73
2019-05-07T07:07:33.986Z,23.43
2019-05-07T07:10:02.665Z,19.57
2019-05-07T07:12:32.967Z,19.60
2019-05-07T07:14:59.880Z,19.40
2019-05-07T07:17:28.704Z,26.30
2019-05-07T07:19:57.490Z,16.70
2019-05-07T07:22:26.295Z,16.27
2019-05-07T07:24:56.146Z,23.93
2019-05-07T07:27:24.963Z,18.00
2019-05-07T07:30:04.872Z,21.13
2019-05-07T07:32:36.240Z,19.83
2019-05-07T07:35:05.996Z,22.70
2019-05-07T07:37:37.920Z,18.10
2019-05-07T07:40:14.461Z,25.13
2019-05-07T07:42:43.355Z,23.60
2019-05-07T07:45:16.542Z,22.23
2019-05-07T07:47:45.640Z,17.47
2019-05-07T07:50:14.521Z,21.30
2019-05-07T07:52:43.547Z,18.87
2019-05-07T07:55:13.670Z,20.63
2019-05-07T07:57:49.238Z,19.20
2019-05-07T08:00:23.627Z,30.20
2019-05-07T08:03:02.246Z,21.13
2019-05-07T08:05:32.435Z,20.43
2019-05-07T08:07:59.179Z,20.03
2019-05-07T08:10:28.303Z,21.33
2019-05-07T08:12:58.593Z,22.83
2019-05-07T08:15:27.411Z,21.43
2019-05-07T08:17:56.239Z,19.40
2019-05-07T08:20:25.107Z,23.30
2019-05-07T08:22:55.317Z,18.53
2019-05-07T08:25:28.387Z,20.40
2019-05-07T08:27:58.261Z,21.07
2019-05-07T08:30:27.701Z,19.23
2019-05-07T08:33:02.243Z,18.80
2019-05-07T08:35:35.037Z,20.13
2019-05-07T08:38:03.914Z,23.50
2019-05-07T08:40:33.010Z,19.77
2019-05-07T08:43:03.229Z,21.87
2019-05-07T08:45:36.255Z,22.57
2019-05-07T08:48:08.292Z,20.43
2019-05-07T08:50:37.091Z,26.43
2019-05-07T08:53:05.924Z,20.07
2019-05-07T08:55:34.834Z,27.70
2019-05-07T08:58:04.341Z,23.33
2019-05-07T09:00:33.843Z,22.20
2019-05-07T09:03:03.939Z,23.07
2019-05-07T09:05:32.751Z,17.53
2019-05-07T09:08:02.230Z,21.63
2019-05-07T09:10:32.477Z,15.90
2019-05-07T09:12:59.333Z,20.27
2019-05-07T09:15:28.177Z,16.77
2019-05-07T09:17:56.974Z,19.33
2019-05-07T09:20:25.782Z,18.47
2019-05-07T09:22:54.605Z,18.17
2019-05-07T09:25:23.413Z,14.40
2019-05-07T09:27:53.515Z,18.17
2019-05-07T09:30:28.590Z,18.03
2019-05-07T09:33:02.317Z,14.27
2019-05-07T09:35:33.695Z,16.63
2019-05-07T09:38:03.167Z,19.03
2019-05-07T09:40:32.038Z,16.57
2019-05-07T09:43:02.526Z,14.60
2019-05-07T09:45:29.806Z,15.60
2019-05-07T09:47:58.625Z,17.50
2019-05-07T09:50:27.447Z,19.10
2019-05-07T09:52:56.270Z,15.33
2019-05-07T09:55:25.100Z,14.93
2019-05-07T09:57:53.910Z,15.50
2019-05-07T10:00:22.778Z,18.20
2019-05-07T10:02:52.843Z,16.13
2019-05-07T10:05:20.422Z,17.90
2019-05-07T10:07:49.944Z,18.17
2019-05-07T10:10:18.784Z,19.97
2019-05-07T10:12:53.910Z,19.50
2019-05-07T10:15:22.687Z,19.50
2019-05-07T10:17:55.191Z,18.00
2019-05-07T10:20:24.001Z,19.47
2019-05-07T10:22:52.903Z,18.07
2019-05-07T10:25:22.425Z,21.30
2019-05-07T10:27:50.539Z,23.63
2019-05-07T10:30:21.708Z,19.70
2019-05-07T10:32:48.200Z,20.77
2019-05-07T10:35:17.003Z,21.90
2019-05-07T10:37:45.795Z,21.83
2019-05-07T10:40:15.199Z,23.87
2019-05-07T10:42:44.007Z,24.07
2019-05-07T10:45:17.968Z,24.70
2019-05-07T10:47:52.894Z,24.97
2019-05-07T10:50:35.494Z,18.57
2019-05-07T10:52:52.997Z,20.93
2019-05-07T10:55:22.245Z,26.23
2019-05-07T10:57:52.611Z,23.87
2019-05-07T11:00:22.468Z,21.87
2019-05-07T11:02:51.839Z,20.70
2019-05-07T11:05:21.893Z,23.93
2019-05-07T11:07:49.009Z,29.70
2019-05-07T11:10:17.814Z,22.17
2019-05-07T11:12:46.613Z,19.47
2019-05-07T11:15:15.422Z,26.03
2019-05-07T11:17:51.988Z,22.80
2019-05-07T11:20:18.784Z,21.57
2019-05-07T11:22:47.647Z,28.53
2019-05-07T11:25:16.491Z,23.87
2019-05-07T11:27:46.067Z,28.23
2019-05-07T11:30:14.879Z,22.13
2019-05-07T11:32:43.686Z,24.33
2019-05-07T11:35:14.742Z,23.37
2019-05-07T11:37:44.097Z,18.87
2019-05-07T11:40:10.177Z,19.30
2019-05-07T11:42:45.152Z,24.97
2019-05-07T11:45:17.154Z,23.40
2019-05-07T11:47:45.970Z,28.70
2019-05-07T11:50:45.163Z,23.27
2019-05-07T11:53:14.674Z,24.60
2019-05-07T11:55:43.486Z,25.00
2019-05-07T11:58:13.194Z,21.30
2019-05-07T12:00:45.941Z,24.47
2019-05-07T12:03:15.404Z,22.77
2019-05-07T12:05:44.200Z,23.80
2019-05-07T12:08:13.307Z,22.90
2019-05-07T12:10:41.808Z,22.23
2019-05-07T12:13:12.267Z,27.90
2019-05-07T12:15:39.439Z,24.93
2019-05-07T12:18:08.298Z,28.93
2019-05-07T12:20:37.784Z,26.53
2019-05-07T12:23:06.596Z,21.87
2019-05-07T12:25:35.410Z,21.97
2019-05-07T12:28:05.419Z,24.17
2019-05-07T12:30:42.864Z,24.10
2019-05-07T12:33:21.527Z,21.53
2019-05-07T12:35:52.434Z,21.83
2019-05-07T12:38:21.912Z,21.50
2019-05-07T12:40:52.252Z,20.30
2019-05-07T12:43:18.886Z,15.70
2019-05-07T12:45:47.685Z,15.80
2019-05-07T12:48:16.482Z,18.87
2019-05-07T12:50:45.948Z,18.63
2019-05-07T12:53:19.565Z,13.90
2019-05-07T12:55:52.872Z,13.77
2019-05-07T12:58:21.879Z,12.70
2019-05-07T13:00:54.364Z,15.33
2019-05-07T13:03:34.272Z,14.07
2019-05-07T13:06:03.216Z,15.57
2019-05-07T13:08:32.954Z,16.53
2019-05-07T13:11:02.818Z,17.47
2019-05-07T13:13:31.838Z,16.90
2019-05-07T13:15:58.422Z,17.17
2019-05-07T13:18:27.241Z,14.87
2019-05-07T13:20:56.188Z,17.37
2019-05-07T13:23:24.958Z,18.13
2019-05-07T13:25:53.822Z,19.57
2019-05-07T13:28:22.627Z,15.00
2019-05-07T13:30:52.655Z,16.20
2019-05-07T13:33:20.288Z,16.83
2019-05-07T13:35:49.096Z,16.17
2019-05-07T13:38:23.992Z,17.80
2019-05-07T13:41:02.196Z,17.03
2019-05-07T13:43:33.007Z,18.97
2019-05-07T13:46:06.142Z,18.77
2019-05-07T13:48:38.000Z,23.90
2019-05-07T13:51:06.976Z,19.53
2019-05-07T13:53:35.753Z,19.73
2019-05-07T13:56:04.565Z,15.97
2019-05-07T13:58:33.363Z,16.67
2019-05-07T14:01:13.444Z,17.93
2019-05-07T14:03:42.335Z,18.80
2019-05-07T14:06:21.751Z,18.47
2019-05-07T14:08:51.845Z,18.10
2019-05-07T14:11:22.363Z,19.27
2019-05-07T14:13:49.403Z,20.10
2019-05-07T14:16:22.275Z,19.70
2019-05-07T14:18:50.192Z,21.53
2019-05-07T14:21:19.348Z,18.63
2019-05-07T14:23:48.726Z,18.97
2019-05-07T14:26:17.559Z,16.73
2019-05-07T14:28:46.415Z,20.10
2019-05-07T14:31:15.297Z,17.50
2019-05-07T14:33:53.928Z,18.30
2019-05-07T14:36:23.538Z,20.93
2019-05-07T14:38:52.371Z,19.23
2019-05-07T14:41:25.265Z,17.40
2019-05-07T14:43:55.018Z,17.63
2019-05-07T14:46:23.836Z,17.77
2019-05-07T14:48:54.133Z,20.37
2019-05-07T14:51:23.019Z,18.17
2019-05-07T14:53:51.860Z,26.00
2019-05-07T14:56:23.147Z,20.13
2019-05-07T14:58:51.583Z,22.43
2019-05-07T15:01:18.691Z,18.13
2019-05-07T15:03:47.568Z,16.00
2019-05-07T15:06:16.420Z,18.70
2019-05-07T15:08:45.532Z,15.77
2019-05-07T15:11:14.362Z,15.90
2019-05-07T15:13:43.187Z,17.10
2019-05-07T15:16:12.661Z,19.57
2019-05-07T15:18:49.136Z,13.47
2019-05-07T15:21:17.975Z,20.20
2019-05-07T15:23:47.316Z,16.93
2019-05-07T15:26:16.110Z,20.57
2019-05-07T15:28:56.435Z,20.80
2019-05-07T15:31:29.453Z,15.93
2019-05-07T15:33:58.345Z,14.33
2019-05-07T15:36:27.158Z,18.93
2019-05-07T15:38:58.141Z,15.77
2019-05-07T15:41:29.159Z,17.10
2019-05-07T15:44:02.671Z,17.30
2019-05-07T15:46:32.055Z,14.57
2019-05-07T15:48:58.694Z,18.27
2019-05-07T15:51:28.298Z,18.93
2019-05-07T15:53:59.347Z,21.83
2019-05-07T15:56:28.188Z,18.40
2019-05-07T15:58:57.041Z,18.40
2019-05-07T16:01:25.831Z,18.70
2019-05-07T16:03:55.322Z,17.67
2019-05-07T16:06:24.120Z,15.43
2019-05-07T16:08:54.746Z,12.23
2019-05-07T16:11:23.537Z,16.87
2019-05-07T16:13:57.606Z,15.13
2019-05-07T16:16:26.395Z,12.30
2019-05-07T16:19:03.959Z,10.47
2019-05-07T16:21:32.795Z,12.57
2019-05-07T16:24:03.890Z,14.17
2019-05-07T16:26:32.563Z,12.93
2019-05-07T16:29:04.306Z,13.97
2019-05-07T16:31:28.948Z,11.57
2019-05-07T16:33:57.805Z,17.53
2019-05-07T16:36:26.679Z,13.50
2019-05-07T16:38:56.107Z,10.33
2019-05-07T16:41:24.911Z,13.60
2019-05-07T16:43:53.735Z,14.43
2019-05-07T16:46:23.499Z,11.03
2019-05-07T16:48:53.535Z,11.87
2019-05-07T16:51:22.458Z,14.03
2019-05-07T16:53:52.408Z,15.43
2019-05-07T16:56:20.008Z,10.67
2019-05-07T16:58:52.438Z,11.83
2019-05-07T17:01:22.240Z,11.97
2019-05-07T17:03:52.999Z,14.03
2019-05-07T17:06:24.803Z,10.77
2019-05-07T17:09:04.904Z,13.13
2019-05-07T17:11:33.751Z,12.80
2019-05-07T17:14:02.577Z,13.43
2019-05-07T17:16:31.845Z,12.10
2019-05-07T17:19:02.349Z,14.57
2019-05-07T17:21:29.079Z,12.73
2019-05-07T17:23:57.859Z,16.83
2019-05-07T17:26:26.756Z,9.57
2019-05-07T17:28:55.579Z,12.00
2019-05-07T17:31:24.362Z,8.53
2019-05-07T17:33:53.207Z,15.87
2019-05-07T17:36:22.487Z,14.20
2019-05-07T17:38:51.985Z,9.83
2019-05-07T17:41:23.883Z,13.47
2019-05-07T17:43:48.506Z,14.57
2019-05-07T17:46:17.328Z,12.30
2019-05-07T17:48:46.142Z,11.53
2019-05-07T17:51:45.589Z,13.33
2019-05-07T17:54:14.412Z,10.90
2019-05-07T17:56:43.502Z,14.40
2019-05-07T17:59:12.466Z,15.27
2019-05-07T18:01:46.201Z,13.77
2019-05-07T18:04:15.004Z,17.37
2019-05-07T18:06:43.836Z,16.07
2019-05-07T18:09:12.658Z,13.03
2019-05-07T18:11:42.893Z,18.80
2019-05-07T18:14:10.361Z,16.53
2019-05-07T18:17:18.596Z,14.33
2019-05-07T18:19:49.116Z,14.27
2019-05-07T18:22:17.956Z,16.33
2019-05-07T18:27:56.036Z,15.27
2019-05-07T18:30:27.910Z,11.60
2019-05-07T18:33:02.426Z,11.60
2019-05-07T18:35:29.789Z,15.37
2019-05-07T18:37:58.655Z,17.07
2019-05-07T18:40:27.457Z,19.93
2019-05-07T18:42:56.782Z,18.10
2019-05-07T18:45:25.582Z,15.30
2019-05-07T18:47:54.434Z,18.43
2019-05-07T18:50:23.279Z,18.03
2019-05-07T18:52:52.975Z,20.23
2019-05-07T18:55:22.633Z,18.73
2019-05-07T18:57:51.767Z,17.30
2019-05-07T19:00:24.194Z,19.27
2019-05-07T19:02:53.067Z,15.53
2019-05-07T19:05:22.308Z,16.33
2019-05-07T19:08:02.368Z,19.17
2019-05-07T19:10:21.984Z,20.07
2019-05-07T19:12:48.971Z,18.23
2019-05-07T19:15:17.809Z,23.23
2019-05-07T19:17:46.742Z,13.83
2019-05-07T19:20:15.578Z,24.43
2019-05-07T19:22:44.997Z,21.73
2019-05-07T19:25:13.831Z,20.77
2019-05-07T19:27:42.671Z,18.43
2019-05-07T19:30:12.520Z,17.60
2019-05-07T19:32:42.693Z,16.17
2019-05-07T19:35:09.247Z,20.97
2019-05-07T19:37:38.102Z,41.70
2019-05-07T19:40:06.892Z,28.63
2019-05-07T19:42:35.717Z,20.80
2019-05-07T19:45:04.559Z,23.33
2019-05-07T19:47:33.463Z,25.70
2019-05-07T19:50:02.294Z,23.00
2019-05-07T19:52:33.010Z,25.20
2019-05-07T19:55:04.172Z,23.57
2019-05-07T19:57:33.136Z,25.23
2019-05-07T20:00:00.811Z,20.90
2019-05-07T20:02:33.336Z,16.90
2019-05-07T20:05:03.540Z,17.17
2019-05-07T20:07:31.863Z,24.37
2019-05-07T20:10:02.663Z,18.70
2019-05-07T20:12:32.300Z,23.87
2019-05-07T20:15:02.785Z,25.60
2019-05-07T20:17:31.380Z,19.40
2019-05-07T20:19:59.151Z,19.80
2019-05-07T20:22:27.974Z,22.73
2019-05-07T20:24:56.803Z,21.23
2019-05-07T20:27:25.605Z,21.90
2019-05-07T20:29:54.500Z,19.93
2019-05-07T20:32:23.347Z,20.10
2019-05-07T20:34:52.188Z,21.33
2019-05-07T20:37:22.000Z,18.87
2019-05-07T20:39:52.359Z,21.77
2019-05-07T20:42:19.323Z,22.07
2019-05-07T20:44:48.199Z,21.90
2019-05-07T20:47:17.288Z,21.93
2019-05-07T20:49:46.113Z,25.77
2019-05-07T20:52:14.920Z,22.77
2019-05-07T20:54:48.926Z,31.87
2019-05-07T20:57:24.120Z,25.10
2019-05-07T20:59:53.035Z,27.20
2019-05-07T21:02:22.717Z,24.13
2019-05-07T21:04:51.908Z,24.60
2019-05-07T21:07:19.492Z,23.77
2019-05-07T21:09:48.855Z,21.80
2019-05-07T21:12:17.690Z,22.87
2019-05-07T21:14:47.700Z,19.57
2019-05-07T21:17:16.596Z,23.77
2019-05-07T21:19:46.240Z,23.50
2019-05-07T21:22:15.085Z,30.90
2019-05-07T21:24:46.730Z,21.63
2019-05-07T21:27:12.959Z,28.53
2019-05-07T21:29:42.339Z,27.93
2019-05-07T21:32:12.405Z,24.03
2019-05-07T21:34:39.428Z,24.03
2019-05-07T21:37:08.645Z,27.97
2019-05-07T21:39:38.806Z,23.23
2019-05-07T21:42:07.593Z,22.70
2019-05-07T21:44:36.456Z,24.40
2019-05-07T21:47:05.252Z,23.97
2019-05-07T21:49:34.110Z,24.73
2019-05-07T21:52:02.917Z,26.20
2019-05-07T21:54:37.868Z,23.83
2019-05-07T21:57:12.886Z,21.87
2019-05-07T21:59:43.184Z,26.57
2019-05-07T22:02:14.570Z,28.00
2019-05-07T22:04:43.479Z,27.73
2019-05-07T22:07:12.354Z,27.67
2019-05-07T22:09:41.098Z,28.50
2019-05-07T22:12:11.983Z,24.93
2019-05-07T22:14:38.739Z,25.27
2019-05-07T22:17:07.636Z,25.07
2019-05-07T22:19:36.439Z,28.83
2019-05-07T22:22:05.334Z,25.73
2019-05-07T22:24:34.213Z,29.33
2019-05-07T22:27:04.225Z,30.47
2019-05-07T22:29:31.821Z,30.70
2019-05-07T22:32:04.855Z,30.80
2019-05-07T22:34:39.192Z,28.03
2019-05-07T22:37:08.077Z,32.90
2019-05-07T22:39:37.671Z,37.53
2019-05-07T22:42:07.218Z,30.60
2019-05-07T22:44:36.016Z,34.03
2019-05-07T22:47:08.984Z,27.37
2019-05-07T22:49:37.780Z,34.27
2019-05-07T22:52:06.579Z,31.00
2019-05-07T22:54:35.370Z,38.43
2019-05-07T22:57:09.086Z,31.50
2019-05-07T22:59:37.910Z,30.90
2019-05-07T23:02:12.188Z,30.43
2019-05-07T23:04:43.158Z,29.53
2019-05-07T23:07:12.766Z,31.67
2019-05-07T23:09:39.738Z,29.30
2019-05-07T23:12:08.627Z,32.00
2019-05-07T23:14:37.464Z,27.47
2019-05-07T23:17:07.360Z,31.57
2019-05-07T23:19:36.214Z,30.77
2019-05-07T23:22:05.053Z,29.13
2019-05-07T23:24:34.494Z,33.70
2019-05-07T23:27:03.302Z,32.43
2019-05-07T23:29:33.058Z,34.10
2019-05-07T23:32:02.070Z,34.57
2019-05-07T23:34:32.436Z,35.93
2019-05-07T23:36:59.311Z,35.00
2019-05-07T23:39:28.652Z,36.93
2019-05-07T23:42:02.287Z,32.13
2019-05-07T23:44:29.992Z,31.93
2019-05-07T23:46:58.807Z,32.30
2019-05-07T23:49:28.776Z,35.50
2019-05-07T23:51:57.566Z,29.13
2019-05-07T23:54:26.371Z,31.10
2019-05-07T23:57:05.835Z,33.17
2019-05-07T23:59:23.975Z,26.07
